createdAt,value
2022-10-26T00:01:22.564Z,24.60
2022-10-26T00:03:50.902Z,24.40
2022-10-26T00:06:22.157Z,24.40
2022-10-26T00:08:50.552Z,24.00
2022-10-26T00:11:19.514Z,24.20
2022-10-26T00:13:48.536Z,23.50
2022-10-26T00:16:19.195Z,23.30
2022-10-26T00:18:47.310Z,23.30
2022-10-26T00:21:15.530Z,23.20
2022-10-26T00:23:44.883Z,23.30
2022-10-26T00:26:12.949Z,23.10
2022-10-26T00:28:40.937Z,22.90
2022-10-26T00:31:13.646Z,23.20
2022-10-26T00:33:41.605Z,23.20
2022-10-26T00:36:10.417Z,23.60
2022-10-26T00:38:38.529Z,23.60
2022-10-26T00:41:07.781Z,24.10
2022-10-26T00:43:40.275Z,24.00
2022-10-26T00:46:12.995Z,24.20
2022-10-26T00:48:45.372Z,24.50
2022-10-26T00:51:21.516Z,24.60
2022-10-26T00:53:49.909Z,24.60
2022-10-26T00:56:19.516Z,24.80
2022-10-26T00:58:48.052Z,24.90
2022-10-26T01:01:16.624Z,25.00
2022-10-26T01:03:45.515Z,24.90
2022-10-26T01:06:15.244Z,24.60
2022-10-26T01:08:44.828Z,24.70
2022-10-26T01:11:13.980Z,24.90
2022-10-26T01:13:44.833Z,25.00
2022-10-26T01:16:36.394Z,25.10
2022-10-26T01:19:32.100Z,25.20
2022-10-26T01:22:04.973Z,24.80
2022-10-26T01:24:49.694Z,24.70
2022-10-26T01:27:25.905Z,24.60
2022-10-26T01:30:21.845Z,24.90
2022-10-26T01:33:03.422Z,25.10
2022-10-26T01:35:34.384Z,25.20
2022-10-26T01:38:10.095Z,25.20
2022-10-26T01:40:41.250Z,24.90
2022-10-26T01:43:13.029Z,25.00
2022-10-26T01:45:46.352Z,24.90
2022-10-26T01:48:18.722Z,24.80
2022-10-26T01:50:50.711Z,24.70
2022-10-26T01:53:20.471Z,24.50
2022-10-26T01:55:50.991Z,24.70
2022-10-26T01:58:43.463Z,24.90
2022-10-26T02:01:26.775Z,25.10
2022-10-26T02:04:09.612Z,25.10
2022-10-26T02:06:45.687Z,25.20
2022-10-26T02:09:22.150Z,25.20
2022-10-26T02:11:54.077Z,25.10
2022-10-26T02:14:31.445Z,25.10
2022-10-26T02:17:07.110Z,25.00
2022-10-26T02:19:42.525Z,25.00
2022-10-26T02:22:17.672Z,24.90
2022-10-26T02:24:46.889Z,24.30
2022-10-26T02:27:20.851Z,24.40
2022-10-26T02:29:52.025Z,24.50
2022-10-26T02:32:24.487Z,24.60
2022-10-26T02:34:54.681Z,24.60
2022-10-26T02:37:24.065Z,24.50
2022-10-26T02:39:53.809Z,24.70
2022-10-26T02:42:23.696Z,24.70
2022-10-26T02:44:55.342Z,24.60
2022-10-26T02:47:26.396Z,24.40
2022-10-26T02:49:55.177Z,24.10
2022-10-26T02:52:29.340Z,23.90
2022-10-26T02:55:04.041Z,23.90
2022-10-26T02:57:39.613Z,24.00
2022-10-26T03:00:08.696Z,24.20
2022-10-26T03:02:38.080Z,23.50
2022-10-26T03:05:11.615Z,23.70
2022-10-26T03:07:39.523Z,23.80
2022-10-26T03:10:08.498Z,24.00
2022-10-26T03:12:36.445Z,24.00
2022-10-26T03:15:04.547Z,23.90
2022-10-26T03:17:32.508Z,24.00
2022-10-26T03:20:01.801Z,23.90
2022-10-26T03:22:29.786Z,23.50
2022-10-26T03:24:57.749Z,23.30
2022-10-26T03:27:26.917Z,23.30
2022-10-26T03:29:54.992Z,23.40
2022-10-26T03:32:22.939Z,23.70
2022-10-26T03:34:50.893Z,23.80
2022-10-26T03:37:20.132Z,23.90
2022-10-26T03:39:48.038Z,24.00
2022-10-26T03:42:15.945Z,24.10
2022-10-26T03:44:43.897Z,24.00
2022-10-26T03:47:11.789Z,24.00
2022-10-26T03:49:39.705Z,23.70
2022-10-26T03:52:07.634Z,23.80
2022-10-26T03:54:36.969Z,23.90
2022-10-26T03:57:05.155Z,24.00
2022-10-26T03:59:33.055Z,23.70
2022-10-26T04:02:01.023Z,23.40
2022-10-26T04:04:29.086Z,23.40
2022-10-26T04:06:57.049Z,23.60
2022-10-26T04:09:25.097Z,23.70
2022-10-26T04:11:54.329Z,23.50
2022-10-26T04:14:22.240Z,23.70
2022-10-26T04:16:50.149Z,23.50
2022-10-26T04:19:18.060Z,23.40
2022-10-26T04:21:45.977Z,23.50
2022-10-26T04:24:14.077Z,23.50
2022-10-26T04:26:42.009Z,23.20
2022-10-26T04:29:11.746Z,23.40
2022-10-26T04:31:39.698Z,23.30
2022-10-26T04:34:07.609Z,23.20
2022-10-26T04:36:35.633Z,23.00
2022-10-26T04:39:03.768Z,22.90
2022-10-26T04:41:31.718Z,22.80
2022-10-26T04:43:59.809Z,22.50
2022-10-26T04:46:29.454Z,22.50
2022-10-26T04:48:58.510Z,22.80
2022-10-26T04:51:27.662Z,22.70
2022-10-26T04:53:55.928Z,22.90
2022-10-26T04:56:23.847Z,23.10
2022-10-26T04:58:54.819Z,23.30
2022-10-26T05:01:23.300Z,23.40
2022-10-26T05:03:53.407Z,23.40
2022-10-26T05:06:21.661Z,23.30
2022-10-26T05:08:49.763Z,23.30
2022-10-26T05:11:17.993Z,23.40
2022-10-26T05:13:47.731Z,23.50
2022-10-26T05:16:16.361Z,23.50
2022-10-26T05:18:44.293Z,23.60
2022-10-26T05:21:19.215Z,23.50
2022-10-26T05:23:51.212Z,23.40
2022-10-26T05:26:19.306Z,23.50
2022-10-26T05:28:47.317Z,23.70
2022-10-26T05:31:15.451Z,23.60
2022-10-26T05:33:43.386Z,23.50
2022-10-26T05:36:12.724Z,23.20
2022-10-26T05:38:40.651Z,23.30
2022-10-26T05:41:08.574Z,22.80
2022-10-26T05:43:36.504Z,22.60
2022-10-26T05:46:07.275Z,22.50
2022-10-26T05:48:35.207Z,22.90
2022-10-26T05:51:03.264Z,23.10
2022-10-26T05:53:32.642Z,23.40
2022-10-26T05:56:01.181Z,23.60
2022-10-26T05:58:29.638Z,23.80
2022-10-26T06:01:11.532Z,23.90
2022-10-26T06:03:50.771Z,24.00
2022-10-26T06:06:19.294Z,24.20
2022-10-26T06:08:49.243Z,24.40
2022-10-26T06:11:17.683Z,24.50
2022-10-26T06:13:46.180Z,24.70
2022-10-26T06:16:27.681Z,24.90
2022-10-26T06:19:04.024Z,24.90
2022-10-26T06:21:48.919Z,25.10
2022-10-26T06:24:25.751Z,25.20
2022-10-26T06:27:00.164Z,25.20
2022-10-26T06:29:43.525Z,24.90
2022-10-26T06:32:12.720Z,25.10
2022-10-26T06:34:46.023Z,25.30
2022-10-26T06:37:14.751Z,25.50
2022-10-26T06:39:49.974Z,25.50
2022-10-26T06:42:23.791Z,25.70
2022-10-26T06:44:52.217Z,25.90
2022-10-26T06:47:27.013Z,25.90
2022-10-26T06:50:02.191Z,26.10
2022-10-26T06:52:34.975Z,25.60
2022-10-26T06:55:05.886Z,25.90
2022-10-26T06:57:36.664Z,26.00
2022-10-26T07:00:07.326Z,26.20
2022-10-26T07:02:35.618Z,26.40
2022-10-26T07:05:10.055Z,26.40
2022-10-26T07:07:42.784Z,26.00
2022-10-26T07:10:13.251Z,25.90
2022-10-26T07:12:41.504Z,26.20
2022-10-26T07:17:46.778Z,26.00
2022-10-26T07:20:15.386Z,26.10
2022-10-26T07:22:43.733Z,26.20
2022-10-26T07:25:13.579Z,26.20
2022-10-26T07:27:41.506Z,26.10
2022-10-26T07:30:10.746Z,26.40
2022-10-26T07:32:38.731Z,26.70
2022-10-26T07:35:07.256Z,26.70
2022-10-26T07:37:35.218Z,26.40
2022-10-26T07:40:06.460Z,26.20
2022-10-26T07:42:37.407Z,26.40
2022-10-26T07:45:06.422Z,26.30
2022-10-26T07:47:34.337Z,26.00
2022-10-26T07:50:03.282Z,26.10
2022-10-26T07:52:31.267Z,26.50
2022-10-26T07:54:59.164Z,26.50
2022-10-26T07:57:27.133Z,26.60
2022-10-26T07:59:56.510Z,26.70
2022-10-26T08:02:25.431Z,26.70
2022-10-26T08:04:53.407Z,27.30
2022-10-26T08:07:21.646Z,27.70
2022-10-26T08:09:49.601Z,27.80
2022-10-26T08:12:17.528Z,27.90
2022-10-26T08:14:45.905Z,27.50
2022-10-26T08:17:15.168Z,27.60
2022-10-26T08:19:43.246Z,27.70
2022-10-26T08:22:11.223Z,28.10
2022-10-26T08:24:39.213Z,28.00
2022-10-26T08:27:07.815Z,28.20
2022-10-26T08:29:35.727Z,28.00
2022-10-26T08:32:03.670Z,27.90
2022-10-26T08:34:32.959Z,28.00
2022-10-26T08:37:00.950Z,27.30
2022-10-26T08:39:30.624Z,27.20
2022-10-26T08:42:05.303Z,27.50
2022-10-26T08:44:39.811Z,27.20
2022-10-26T08:49:52.417Z,26.90
2022-10-26T08:52:26.478Z,26.90
2022-10-26T08:54:57.331Z,26.40
2022-10-26T08:57:29.324Z,26.40
2022-10-26T09:00:03.432Z,26.20
2022-10-26T09:02:31.528Z,26.10
2022-10-26T09:05:01.419Z,26.40
2022-10-26T09:07:51.088Z,26.50
2022-10-26T09:10:33.882Z,26.40
2022-10-26T09:13:09.927Z,26.10
2022-10-26T09:15:49.806Z,26.10
2022-10-26T09:18:26.675Z,26.30
2022-10-26T09:21:11.407Z,26.30
2022-10-26T09:23:55.887Z,26.20
2022-10-26T09:26:32.884Z,26.60
2022-10-26T09:29:04.307Z,26.00
2022-10-26T09:31:47.350Z,26.00
2022-10-26T09:34:23.337Z,26.10
2022-10-26T09:36:56.094Z,26.20
2022-10-26T09:39:31.575Z,26.60
2022-10-26T09:42:04.192Z,26.70
2022-10-26T09:44:37.246Z,26.00
2022-10-26T09:47:13.935Z,25.80
2022-10-26T09:49:48.567Z,26.70
2022-10-26T09:52:18.255Z,26.80
2022-10-26T09:54:46.523Z,26.70
2022-10-26T09:57:17.610Z,26.70
2022-10-26T09:59:47.774Z,26.60
2022-10-26T10:02:34.176Z,26.80
2022-10-26T10:05:02.669Z,26.90
2022-10-26T10:07:33.708Z,27.00
2022-10-26T10:10:17.100Z,27.30
2022-10-26T10:12:46.957Z,28.00
2022-10-26T10:15:19.513Z,27.60
2022-10-26T10:17:53.187Z,28.00
2022-10-26T10:20:23.622Z,28.60
2022-10-26T10:22:57.738Z,28.20
2022-10-26T10:25:35.182Z,27.90
2022-10-26T10:28:03.649Z,27.80
2022-10-26T10:30:33.276Z,27.80
2022-10-26T10:33:11.952Z,27.90
2022-10-26T10:35:48.641Z,28.50
2022-10-26T10:38:21.769Z,28.70
2022-10-26T10:40:54.568Z,29.10
2022-10-26T10:43:25.189Z,29.60
2022-10-26T10:45:59.660Z,29.80
2022-10-26T10:48:31.673Z,29.50
2022-10-26T10:51:04.310Z,28.90
2022-10-26T10:53:40.232Z,28.40
2022-10-26T10:56:21.674Z,28.50
2022-10-26T10:59:03.901Z,28.30
2022-10-26T11:01:39.471Z,28.90
2022-10-26T11:04:26.669Z,28.60
2022-10-26T11:06:58.377Z,28.10
2022-10-26T11:09:31.235Z,28.10
2022-10-26T11:12:03.767Z,28.00
2022-10-26T11:14:36.803Z,28.20
2022-10-26T11:17:09.257Z,28.10
2022-10-26T11:19:44.283Z,28.10
2022-10-26T11:22:16.999Z,28.50
2022-10-26T11:24:50.678Z,29.10
2022-10-26T11:27:22.703Z,29.30
2022-10-26T11:29:58.425Z,29.50
2022-10-26T11:32:32.336Z,29.30
2022-10-26T11:35:06.055Z,28.60
2022-10-26T11:40:25.994Z,28.60
2022-10-26T11:43:02.890Z,28.70
2022-10-26T11:45:35.483Z,28.50
2022-10-26T11:48:13.191Z,28.50
2022-10-26T11:50:46.416Z,28.40
2022-10-26T11:53:18.071Z,28.60
2022-10-26T11:55:52.085Z,29.30
2022-10-26T11:58:20.213Z,29.60
2022-10-26T12:00:50.982Z,29.50
2022-10-26T12:03:22.455Z,29.50
2022-10-26T12:05:52.428Z,29.40
2022-10-26T12:08:25.477Z,28.80
2022-10-26T12:13:43.483Z,28.50
2022-10-26T12:16:20.092Z,28.30
2022-10-26T12:18:56.802Z,28.30
2022-10-26T12:21:28.438Z,28.20
2022-10-26T12:23:58.813Z,27.90
2022-10-26T12:26:41.702Z,27.80
2022-10-26T12:29:32.416Z,27.70
2022-10-26T12:32:00.752Z,27.80
2022-10-26T12:35:02.599Z,28.30
2022-10-26T12:37:36.722Z,28.20
2022-10-26T12:40:41.828Z,28.30
2022-10-26T12:46:45.990Z,28.10
2022-10-26T12:49:58.540Z,28.90
2022-10-26T12:52:53.000Z,29.50
2022-10-26T12:55:55.593Z,29.30
2022-10-26T12:58:53.112Z,28.80
2022-10-26T13:02:09.160Z,28.50
2022-10-26T13:05:10.648Z,28.80
2022-10-26T13:07:42.595Z,28.80
2022-10-26T13:10:22.332Z,28.70
2022-10-26T13:12:54.393Z,28.40
2022-10-26T13:15:28.734Z,28.10
2022-10-26T13:18:02.576Z,28.10
2022-10-26T13:20:32.033Z,28.10
2022-10-26T13:25:33.482Z,28.10
2022-10-26T13:28:04.895Z,28.10
2022-10-26T13:30:45.794Z,28.00
2022-10-26T13:33:23.744Z,28.00
2022-10-26T13:35:57.705Z,28.00
2022-10-26T13:38:31.838Z,28.20
2022-10-26T13:41:08.925Z,28.10
2022-10-26T13:43:38.362Z,27.90
2022-10-26T13:46:06.704Z,27.50
2022-10-26T13:48:41.471Z,27.90
2022-10-26T13:51:17.816Z,28.00
2022-10-26T13:53:50.575Z,28.50
2022-10-26T13:56:29.176Z,28.50
2022-10-26T13:59:01.679Z,28.70
2022-10-26T14:01:30.438Z,28.60
2022-10-26T14:04:00.460Z,28.80
2022-10-26T14:06:33.391Z,28.90
2022-10-26T14:09:05.898Z,29.00
2022-10-26T14:11:36.733Z,29.10
2022-10-26T14:14:06.016Z,29.10
2022-10-26T14:16:35.421Z,29.10
2022-10-26T14:19:04.883Z,29.50
2022-10-26T14:21:32.927Z,29.40
2022-10-26T14:24:04.157Z,29.70
2022-10-26T14:26:40.017Z,29.60
2022-10-26T14:29:17.653Z,29.40
2022-10-26T14:31:45.891Z,29.60
2022-10-26T14:34:15.166Z,29.70
2022-10-26T14:36:46.993Z,29.90
2022-10-26T14:39:23.138Z,30.10
2022-10-26T14:41:53.244Z,30.20
2022-10-26T14:44:24.071Z,30.30
2022-10-26T14:46:52.454Z,30.30
2022-10-26T14:49:26.226Z,30.10
2022-10-26T14:51:59.804Z,30.10
2022-10-26T14:54:32.207Z,30.00
2022-10-26T14:57:02.600Z,29.90
2022-10-26T14:59:35.219Z,29.60
2022-10-26T15:02:15.232Z,29.70
2022-10-26T15:04:59.335Z,29.60
2022-10-26T15:07:36.572Z,29.50
2022-10-26T15:10:04.994Z,29.40
2022-10-26T15:12:34.712Z,29.20
2022-10-26T15:15:19.635Z,28.70
2022-10-26T15:17:52.271Z,28.40
2022-10-26T15:20:33.213Z,28.60
2022-10-26T15:23:03.427Z,28.70
2022-10-26T15:25:34.232Z,28.40
2022-10-26T15:28:10.961Z,28.00
2022-10-26T15:30:38.986Z,27.50
2022-10-26T15:33:21.807Z,27.20
2022-10-26T15:35:51.096Z,26.70
2022-10-26T15:38:19.047Z,26.70
2022-10-26T15:40:46.957Z,26.50
2022-10-26T15:43:15.082Z,26.40
2022-10-26T15:45:48.932Z,26.50
2022-10-26T15:48:20.578Z,26.40
2022-10-26T15:50:48.530Z,26.40
2022-10-26T15:53:21.128Z,26.40
2022-10-26T15:55:49.802Z,26.50
2022-10-26T15:58:18.040Z,26.30
2022-10-26T16:00:46.286Z,26.00
2022-10-26T16:03:19.798Z,25.80
2022-10-26T16:05:48.034Z,26.00
2022-10-26T16:08:19.676Z,26.20
2022-10-26T16:10:48.552Z,26.00
2022-10-26T16:13:17.040Z,26.20
2022-10-26T16:15:45.827Z,26.60
2022-10-26T16:18:14.027Z,26.70
2022-10-26T16:20:42.400Z,26.50
2022-10-26T16:23:10.359Z,25.90
2022-10-26T16:25:44.410Z,25.70
2022-10-26T16:28:13.866Z,25.40
2022-10-26T16:30:42.446Z,25.60
2022-10-26T16:33:10.472Z,25.70
2022-10-26T16:35:38.494Z,25.90
2022-10-26T16:38:06.640Z,25.90
2022-10-26T16:40:34.610Z,25.80
2022-10-26T16:43:05.830Z,25.00
2022-10-26T16:45:33.750Z,25.20
2022-10-26T16:48:05.695Z,25.50
2022-10-26T16:50:36.290Z,25.70
2022-10-26T16:53:04.548Z,25.50
2022-10-26T16:55:32.845Z,25.20
2022-10-26T16:58:00.870Z,25.00
2022-10-26T17:00:30.189Z,25.40
2022-10-26T17:03:00.099Z,25.20
2022-10-26T17:05:28.063Z,24.90
2022-10-26T17:07:56.668Z,25.00
2022-10-26T17:10:25.712Z,25.00
2022-10-26T17:12:53.801Z,25.20
2022-10-26T17:15:23.279Z,24.90
2022-10-26T17:17:54.561Z,24.60
2022-10-26T17:20:24.910Z,24.70
2022-10-26T17:22:53.161Z,25.30
2022-10-26T17:25:23.279Z,25.90
2022-10-26T17:27:51.220Z,26.00
2022-10-26T17:30:19.336Z,26.30
2022-10-26T17:32:47.466Z,26.10
2022-10-26T17:35:17.134Z,25.90
2022-10-26T17:37:45.327Z,25.50
2022-10-26T17:40:13.489Z,25.50
2022-10-26T17:42:41.457Z,25.30
2022-10-26T17:45:10.714Z,25.40
2022-10-26T17:47:40.368Z,25.70
2022-10-26T17:50:09.237Z,25.60
2022-10-26T17:52:40.846Z,25.60
2022-10-26T17:55:09.344Z,25.70
2022-10-26T17:57:37.309Z,26.00
2022-10-26T18:00:06.297Z,25.80
2022-10-26T18:02:40.414Z,25.90
2022-10-26T18:05:09.516Z,25.70
2022-10-26T18:07:38.800Z,25.40
2022-10-26T18:10:14.106Z,25.50
2022-10-26T18:12:55.034Z,25.90
2022-10-26T18:15:23.851Z,26.10
2022-10-26T18:17:56.777Z,26.10
2022-10-26T18:20:26.440Z,26.00
2022-10-26T18:22:57.005Z,25.80
2022-10-26T18:25:25.298Z,25.30
2022-10-26T18:27:53.293Z,25.60
2022-10-26T18:30:21.269Z,25.60
2022-10-26T18:32:50.336Z,25.30
2022-10-26T18:35:18.516Z,25.70
2022-10-26T18:37:46.610Z,25.80
2022-10-26T18:40:16.103Z,25.90
2022-10-26T18:42:44.002Z,25.40
2022-10-26T18:45:12.374Z,24.50
2022-10-26T18:47:40.357Z,25.10
2022-10-26T18:50:08.917Z,24.60
2022-10-26T18:52:36.923Z,25.00
2022-10-26T18:55:06.586Z,24.90
2022-10-26T18:57:35.871Z,25.10
2022-10-26T19:00:04.248Z,24.70
2022-10-26T19:02:32.186Z,25.00
2022-10-26T19:05:03.488Z,25.20
2022-10-26T19:07:31.565Z,25.40
2022-10-26T19:09:59.533Z,25.00
2022-10-26T19:12:27.880Z,25.10
2022-10-26T19:14:57.133Z,25.00
2022-10-26T19:17:25.046Z,25.00
2022-10-26T19:19:52.983Z,24.90
2022-10-26T19:22:23.451Z,24.70
2022-10-26T19:24:51.423Z,25.10
2022-10-26T19:27:20.904Z,24.80
2022-10-26T19:29:49.382Z,24.10
2022-10-26T19:32:19.839Z,24.30
2022-10-26T19:34:47.788Z,24.60
2022-10-26T19:37:15.814Z,24.50
2022-10-26T19:39:46.682Z,24.50
2022-10-26T19:42:14.623Z,23.90
2022-10-26T19:44:42.546Z,23.70
2022-10-26T19:47:10.493Z,23.70
2022-10-26T19:49:39.794Z,23.90
2022-10-26T19:52:10.137Z,24.20
2022-10-26T19:54:38.323Z,24.00
2022-10-26T19:57:08.274Z,23.60
2022-10-26T19:59:36.231Z,23.50
2022-10-26T20:02:04.199Z,23.70
2022-10-26T20:04:32.119Z,24.00
2022-10-26T20:07:01.391Z,24.10
2022-10-26T20:09:29.511Z,24.40
2022-10-26T20:11:59.657Z,24.50
2022-10-26T20:14:27.613Z,24.70
2022-10-26T20:16:57.624Z,24.90
2022-10-26T20:19:25.590Z,24.90
2022-10-26T20:21:53.541Z,25.00
2022-10-26T20:24:22.886Z,25.10
2022-10-26T20:26:50.852Z,25.10
2022-10-26T20:29:19.037Z,25.00
2022-10-26T20:31:46.970Z,25.10
2022-10-26T20:34:14.914Z,24.90
2022-10-26T20:36:42.834Z,24.60
2022-10-26T20:39:11.384Z,24.50
2022-10-26T20:41:46.559Z,24.40
2022-10-26T20:44:22.004Z,24.40
2022-10-26T20:46:50.642Z,24.30
2022-10-26T20:49:19.039Z,24.30
2022-10-26T20:52:15.722Z,23.90
2022-10-26T20:54:47.575Z,23.70
2022-10-26T20:57:24.581Z,23.50
2022-10-26T20:59:56.919Z,23.50
2022-10-26T21:02:24.846Z,23.60
2022-10-26T21:04:52.837Z,23.80
2022-10-26T21:07:22.787Z,24.00
2022-10-26T21:09:50.742Z,24.00
2022-10-26T21:12:20.074Z,23.90
2022-10-26T21:14:48.020Z,23.90
2022-10-26T21:17:15.959Z,24.10
2022-10-26T21:19:43.860Z,24.00
2022-10-26T21:22:11.757Z,23.90
2022-10-26T21:24:39.717Z,23.90
2022-10-26T21:27:07.646Z,23.80
2022-10-26T21:29:36.908Z,23.50
2022-10-26T21:32:05.379Z,23.40
2022-10-26T21:34:33.371Z,22.90
2022-10-26T21:37:01.523Z,22.40
2022-10-26T21:39:29.460Z,22.30
2022-10-26T21:41:57.443Z,22.30
2022-10-26T21:44:40.492Z,22.30
2022-10-26T21:47:10.835Z,22.60
2022-10-26T21:49:38.849Z,22.90
2022-10-26T21:52:07.312Z,23.20
2022-10-26T21:54:35.230Z,23.40
2022-10-26T21:57:03.592Z,23.70
2022-10-26T21:59:31.555Z,23.80
2022-10-26T22:01:59.603Z,23.80
2022-10-26T22:04:29.284Z,23.80
2022-10-26T22:06:58.170Z,23.90
2022-10-26T22:09:27.260Z,24.10
2022-10-26T22:11:55.192Z,24.10
2022-10-26T22:14:23.290Z,24.00
2022-10-26T22:16:51.227Z,23.60
2022-10-26T22:19:19.156Z,23.40
2022-10-26T22:21:48.415Z,23.30
2022-10-26T22:24:16.703Z,23.20
2022-10-26T22:26:44.603Z,23.10
2022-10-26T22:29:12.547Z,22.80
2022-10-26T22:31:41.723Z,22.70
2022-10-26T22:34:15.112Z,23.00
2022-10-26T22:36:43.141Z,23.30
2022-10-26T22:39:12.470Z,23.50
2022-10-26T22:41:40.468Z,23.50
2022-10-26T22:44:08.493Z,23.70
2022-10-26T22:46:36.428Z,23.60
2022-10-26T22:49:06.721Z,23.20
2022-10-26T22:51:35.772Z,22.90
2022-10-26T22:54:04.981Z,22.70
2022-10-26T22:56:36.561Z,22.80
2022-10-26T22:59:05.167Z,22.80
2022-10-26T23:01:36.893Z,22.90
2022-10-26T23:04:05.663Z,22.50
2022-10-26T23:06:33.948Z,22.60
2022-10-26T23:09:01.886Z,22.60
2022-10-26T23:11:30.914Z,22.50
2022-10-26T23:14:01.684Z,22.60
2022-10-26T23:16:30.947Z,22.80
2022-10-26T23:18:59.551Z,22.80
2022-10-26T23:21:28.950Z,22.80
2022-10-26T23:23:57.431Z,22.50
2022-10-26T23:26:25.700Z,22.30
2022-10-26T23:28:53.641Z,22.30
2022-10-26T23:31:24.111Z,22.10
2022-10-26T23:33:53.019Z,22.20
2022-10-26T23:36:21.222Z,22.20
2022-10-26T23:38:49.402Z,21.90
2022-10-26T23:41:17.565Z,22.00
2022-10-26T23:43:45.565Z,22.10
2022-10-26T23:46:13.573Z,22.30
2022-10-26T23:48:42.949Z,22.60
2022-10-26T23:51:10.876Z,22.60
2022-10-26T23:53:38.853Z,22.80
2022-10-26T23:56:07.493Z,23.10
2022-10-26T23:58:35.461Z,23.20
